sensor_id;sensor_type;location;lat;lon;timestamp;P1;P2;P0
43479;PMS5003;29067;35.492;-97.520;2023-10-31T00:01:33;4;4;
43479;PMS5003;29067;35.492;-97.520;2023-10-31T00:04:01;3;3;
43479;PMS5003;29067;35.492;-97.520;2023-10-31T00:06:29;3;2;
43479;PMS5003;29067;35.492;-97.520;2023-10-31T00:08:57;3;3;
43479;PMS5003;29067;35.492;-97.520;2023-10-31T00:11:25;3;3;
43479;PMS5003;29067;35.492;-97.520;2023-10-31T00:13:53;5;5;
43479;PMS5003;29067;35.492;-97.520;2023-10-31T00:16:21;3;3;
43479;PMS5003;29067;35.492;-97.520;2023-10-31T00:18:49;5;5;
43479;PMS5003;29067;35.492;-97.520;2023-10-31T00:21:17;6;5;
43479;PMS5003;29067;35.492;-97.520;2023-10-31T00:23:46;6;6;
43479;PMS5003;29067;35.492;-97.520;2023-10-31T00:26:15;6;6;
43479;PMS5003;29067;35.492;-97.520;2023-10-31T00:28:43;3;3;
43479;PMS5003;29067;35.492;-97.520;2023-10-31T00:31:11;8;7;
43479;PMS5003;29067;35.492;-97.520;2023-10-31T00:33:39;7;7;
43479;PMS5003;29067;35.492;-97.520;2023-10-31T00:36:07;6;6;
43479;PMS5003;29067;35.492;-97.520;2023-10-31T00:38:35;6;6;
43479;PMS5003;29067;35.492;-97.520;2023-10-31T00:41:03;7;7;
43479;PMS5003;29067;35.492;-97.520;2023-10-31T00:43:31;9;6;
43479;PMS5003;29067;35.492;-97.520;2023-10-31T00:45:59;5;5;
43479;PMS5003;29067;35.492;-97.520;2023-10-31T00:48:29;6;6;
43479;PMS5003;29067;35.492;-97.520;2023-10-31T00:50:57;6;6;
43479;PMS5003;29067;35.492;-97.520;2023-10-31T00:53:25;6;6;
43479;PMS5003;29067;35.492;-97.520;2023-10-31T00:55:53;9;7;
43479;PMS5003;29067;35.492;-97.520;2023-10-31T00:58:21;9;9;
43479;PMS5003;29067;35.492;-97.520;2023-10-31T01:00:49;7;7;
43479;PMS5003;29067;35.492;-97.520;2023-10-31T01:03:17;7;6;
43479;PMS5003;29067;35.492;-97.520;2023-10-31T01:05:45;6;6;
43479;PMS5003;29067;35.492;-97.520;2023-10-31T01:08:13;5;5;
43479;PMS5003;29067;35.492;-97.520;2023-10-31T01:10:41;7;7;
43479;PMS5003;29067;35.492;-97.520;2023-10-31T01:13:09;9;9;
43479;PMS5003;29067;35.492;-97.520;2023-10-31T01:15:37;11;10;
43479;PMS5003;29067;35.492;-97.520;2023-10-31T01:18:05;9;7;
43479;PMS5003;29067;35.492;-97.520;2023-10-31T01:20:34;9;9;
43479;PMS5003;29067;35.492;-97.520;2023-10-31T01:23:02;9;9;
43479;PMS5003;29067;35.492;-97.520;2023-10-31T01:25:29;13;9;
43479;PMS5003;29067;35.492;-97.520;2023-10-31T01:27:58;11;11;
43479;PMS5003;29067;35.492;-97.520;2023-10-31T01:30:25;11;10;
43479;PMS5003;29067;35.492;-97.520;2023-10-31T01:32:53;13;11;
43479;PMS5003;29067;35.492;-97.520;2023-10-31T01:35:22;10;9;
43479;PMS5003;29067;35.492;-97.520;2023-10-31T01:37:50;13;10;
43479;PMS5003;29067;35.492;-97.520;2023-10-31T01:40:18;10;10;
43479;PMS5003;29067;35.492;-97.520;2023-10-31T01:42:46;10;9;
43479;PMS5003;29067;35.492;-97.520;2023-10-31T01:45:14;10;9;
43479;PMS5003;29067;35.492;-97.520;2023-10-31T01:47:42;9;9;
43479;PMS5003;29067;35.492;-97.520;2023-10-31T01:50:13;9;9;
43479;PMS5003;29067;35.492;-97.520;2023-10-31T01:52:42;11;9;
43479;PMS5003;29067;35.492;-97.520;2023-10-31T01:55:10;7;7;
43479;PMS5003;29067;35.492;-97.520;2023-10-31T01:57:38;11;11;
43479;PMS5003;29067;35.492;-97.520;2023-10-31T02:00:07;14;13;
43479;PMS5003;29067;35.492;-97.520;2023-10-31T02:02:36;13;13;
43479;PMS5003;29067;35.492;-97.520;2023-10-31T02:05:07;11;11;
43479;PMS5003;29067;35.492;-97.520;2023-10-31T02:07:36;10;10;
43479;PMS5003;29067;35.492;-97.520;2023-10-31T02:10:04;10;10;
43479;PMS5003;29067;35.492;-97.520;2023-10-31T02:12:33;11;10;
43479;PMS5003;29067;35.492;-97.520;2023-10-31T02:15:03;14;11;
43479;PMS5003;29067;35.492;-97.520;2023-10-31T02:17:31;9;9;
43479;PMS5003;29067;35.492;-97.520;2023-10-31T02:19:59;14;13;
43479;PMS5003;29067;35.492;-97.520;2023-10-31T02:22:27;11;11;
43479;PMS5003;29067;35.492;-97.520;2023-10-31T02:24:55;18;14;
43479;PMS5003;29067;35.492;-97.520;2023-10-31T02:27:23;14;13;
43479;PMS5003;29067;35.492;-97.520;2023-10-31T02:29:51;11;10;
43479;PMS5003;29067;35.492;-97.520;2023-10-31T02:32:19;11;11;
43479;PMS5003;29067;35.492;-97.520;2023-10-31T02:34:47;17;13;
43479;PMS5003;29067;35.492;-97.520;2023-10-31T02:37:16;11;11;
43479;PMS5003;29067;35.492;-97.520;2023-10-31T02:39:44;12;12;
43479;PMS5003;29067;35.492;-97.520;2023-10-31T02:42:12;18;14;
43479;PMS5003;29067;35.492;-97.520;2023-10-31T02:44:40;22;21;
43479;PMS5003;29067;35.492;-97.520;2023-10-31T02:47:08;10;10;
43479;PMS5003;29067;35.492;-97.520;2023-10-31T02:49:36;12;10;
43479;PMS5003;29067;35.492;-97.520;2023-10-31T02:52:04;16;13;
43479;PMS5003;29067;35.492;-97.520;2023-10-31T02:54:32;22;19;
43479;PMS5003;29067;35.492;-97.520;2023-10-31T02:57:00;17;15;
43479;PMS5003;29067;35.492;-97.520;2023-10-31T02:59:28;14;13;
43479;PMS5003;29067;35.492;-97.520;2023-10-31T03:01:57;16;14;
43479;PMS5003;29067;35.492;-97.520;2023-10-31T03:04:25;13;12;
43479;PMS5003;29067;35.492;-97.520;2023-10-31T03:06:53;14;14;
43479;PMS5003;29067;35.492;-97.520;2023-10-31T03:09:21;14;14;
43479;PMS5003;29067;35.492;-97.520;2023-10-31T03:11:49;12;10;
43479;PMS5003;29067;35.492;-97.520;2023-10-31T03:14:17;14;13;
43479;PMS5003;29067;35.492;-97.520;2023-10-31T03:16:45;14;12;
43479;PMS5003;29067;35.492;-97.520;2023-10-31T03:19:13;9;9;
43479;PMS5003;29067;35.492;-97.520;2023-10-31T03:21:41;18;14;
43479;PMS5003;29067;35.492;-97.520;2023-10-31T03:24:09;8;8;
43479;PMS5003;29067;35.492;-97.520;2023-10-31T03:26:37;12;12;
43479;PMS5003;29067;35.492;-97.520;2023-10-31T03:29:05;12;10;
43479;PMS5003;29067;35.492;-97.520;2023-10-31T03:31:34;10;10;
43479;PMS5003;29067;35.492;-97.520;2023-10-31T03:34:07;16;14;
43479;PMS5003;29067;35.492;-97.520;2023-10-31T03:36:35;16;14;
43479;PMS5003;29067;35.492;-97.520;2023-10-31T03:39:03;16;13;
43479;PMS5003;29067;35.492;-97.520;2023-10-31T03:41:31;12;12;
43479;PMS5003;29067;35.492;-97.520;2023-10-31T03:43:59;12;12;
43479;PMS5003;29067;35.492;-97.520;2023-10-31T03:46:27;16;13;
43479;PMS5003;29067;35.492;-97.520;2023-10-31T03:48:55;13;12;
43479;PMS5003;29067;35.492;-97.520;2023-10-31T03:51:24;12;10;
43479;PMS5003;29067;35.492;-97.520;2023-10-31T03:53:52;13;12;
43479;PMS5003;29067;35.492;-97.520;2023-10-31T03:56:20;10;10;
43479;PMS5003;29067;35.492;-97.520;2023-10-31T03:58:48;14;12;
43479;PMS5003;29067;35.492;-97.520;2023-10-31T04:01:16;13;12;
43479;PMS5003;29067;35.492;-97.520;2023-10-31T04:03:44;8;8;
43479;PMS5003;29067;35.492;-97.520;2023-10-31T04:06:12;13;12;
43479;PMS5003;29067;35.492;-97.520;2023-10-31T04:08:40;20;14;
43479;PMS5003;29067;35.492;-97.520;2023-10-31T04:11:08;9;9;
43479;PMS5003;29067;35.492;-97.520;2023-10-31T04:13:36;10;10;
43479;PMS5003;29067;35.492;-97.520;2023-10-31T04:16:04;14;13;
43479;PMS5003;29067;35.492;-97.520;2023-10-31T04:18:33;12;10;
43479;PMS5003;29067;35.492;-97.520;2023-10-31T04:21:02;12;12;
43479;PMS5003;29067;35.492;-97.520;2023-10-31T04:23:30;12;9;
43479;PMS5003;29067;35.492;-97.520;2023-10-31T04:25:58;10;10;
43479;PMS5003;29067;35.492;-97.520;2023-10-31T04:28:26;10;9;
43479;PMS5003;29067;35.492;-97.520;2023-10-31T04:30:55;6;6;
43479;PMS5003;29067;35.492;-97.520;2023-10-31T04:33:23;10;10;
43479;PMS5003;29067;35.492;-97.520;2023-10-31T04:35:51;10;10;
43479;PMS5003;29067;35.492;-97.520;2023-10-31T04:38:19;10;10;
43479;PMS5003;29067;35.492;-97.520;2023-10-31T04:40:47;9;9;
43479;PMS5003;29067;35.492;-97.520;2023-10-31T04:43:15;16;12;
43479;PMS5003;29067;35.492;-97.520;2023-10-31T04:45:43;9;9;
43479;PMS5003;29067;35.492;-97.520;2023-10-31T04:48:11;8;6;
43479;PMS5003;29067;35.492;-97.520;2023-10-31T04:50:39;10;9;
43479;PMS5003;29067;35.492;-97.520;2023-10-31T04:53:07;9;9;
43479;PMS5003;29067;35.492;-97.520;2023-10-31T04:55:35;10;9;
43479;PMS5003;29067;35.492;-97.520;2023-10-31T04:58:03;6;6;
43479;PMS5003;29067;35.492;-97.520;2023-10-31T05:00:31;9;9;
43479;PMS5003;29067;35.492;-97.520;2023-10-31T05:03:00;11;11;
43479;PMS5003;29067;35.492;-97.520;2023-10-31T05:05:28;8;8;
43479;PMS5003;29067;35.492;-97.520;2023-10-31T05:07:56;10;8;
43479;PMS5003;29067;35.492;-97.520;2023-10-31T05:10:24;11;9;
43479;PMS5003;29067;35.492;-97.520;2023-10-31T05:12:52;9;8;
43479;PMS5003;29067;35.492;-97.520;2023-10-31T05:15:20;9;9;
43479;PMS5003;29067;35.492;-97.520;2023-10-31T05:17:48;13;12;
43479;PMS5003;29067;35.492;-97.520;2023-10-31T05:20:17;13;11;
43479;PMS5003;29067;35.492;-97.520;2023-10-31T05:22:45;9;9;
43479;PMS5003;29067;35.492;-97.520;2023-10-31T05:25:13;8;8;
43479;PMS5003;29067;35.492;-97.520;2023-10-31T05:27:41;9;9;
43479;PMS5003;29067;35.492;-97.520;2023-10-31T05:30:10;9;8;
43479;PMS5003;29067;35.492;-97.520;2023-10-31T05:32:40;8;8;
43479;PMS5003;29067;35.492;-97.520;2023-10-31T05:35:08;8;6;
43479;PMS5003;29067;35.492;-97.520;2023-10-31T05:37:36;6;6;
43479;PMS5003;29067;35.492;-97.520;2023-10-31T05:40:05;9;9;
43479;PMS5003;29067;35.492;-97.520;2023-10-31T05:42:33;9;9;
43479;PMS5003;29067;35.492;-97.520;2023-10-31T05:45:01;13;12;
43479;PMS5003;29067;35.492;-97.520;2023-10-31T05:47:30;11;11;
43479;PMS5003;29067;35.492;-97.520;2023-10-31T05:49:59;16;13;
43479;PMS5003;29067;35.492;-97.520;2023-10-31T05:52:27;16;13;
43479;PMS5003;29067;35.492;-97.520;2023-10-31T05:54:55;19;15;
43479;PMS5003;29067;35.492;-97.520;2023-10-31T05:57:23;22;18;
43479;PMS5003;29067;35.492;-97.520;2023-10-31T05:59:51;17;16;
43479;PMS5003;29067;35.492;-97.520;2023-10-31T06:02:20;26;19;
43479;PMS5003;29067;35.492;-97.520;2023-10-31T06:04:48;26;20;
43479;PMS5003;29067;35.492;-97.520;2023-10-31T06:07:16;17;17;
43479;PMS5003;29067;35.492;-97.520;2023-10-31T06:09:44;20;20;
43479;PMS5003;29067;35.492;-97.520;2023-10-31T06:12:12;27;22;
43479;PMS5003;29067;35.492;-97.520;2023-10-31T06:14:40;26;23;
43479;PMS5003;29067;35.492;-97.520;2023-10-31T06:17:08;19;19;
43479;PMS5003;29067;35.492;-97.520;2023-10-31T06:19:37;26;22;
43479;PMS5003;29067;35.492;-97.520;2023-10-31T06:22:04;26;20;
43479;PMS5003;29067;35.492;-97.520;2023-10-31T06:24:32;34;24;
43479;PMS5003;29067;35.492;-97.520;2023-10-31T06:27:00;30;26;
43479;PMS5003;29067;35.492;-97.520;2023-10-31T06:29:28;30;21;
43479;PMS5003;29067;35.492;-97.520;2023-10-31T06:31:56;19;16;
43479;PMS5003;29067;35.492;-97.520;2023-10-31T06:34:25;20;19;
43479;PMS5003;29067;35.492;-97.520;2023-10-31T06:36:53;23;20;
43479;PMS5003;29067;35.492;-97.520;2023-10-31T06:39:21;19;19;
43479;PMS5003;29067;35.492;-97.520;2023-10-31T06:41:49;24;21;
43479;PMS5003;29067;35.492;-97.520;2023-10-31T06:44:20;20;19;
43479;PMS5003;29067;35.492;-97.520;2023-10-31T06:46:48;19;19;
43479;PMS5003;29067;35.492;-97.520;2023-10-31T06:49:17;19;17;
43479;PMS5003;29067;35.492;-97.520;2023-10-31T06:51:45;21;20;
43479;PMS5003;29067;35.492;-97.520;2023-10-31T06:54:12;29;21;
43479;PMS5003;29067;35.492;-97.520;2023-10-31T06:56:40;20;17;
43479;PMS5003;29067;35.492;-97.520;2023-10-31T06:59:08;20;20;
43479;PMS5003;29067;35.492;-97.520;2023-10-31T07:01:36;19;17;
43479;PMS5003;29067;35.492;-97.520;2023-10-31T07:04:05;20;17;
43479;PMS5003;29067;35.492;-97.520;2023-10-31T07:06:33;26;20;
43479;PMS5003;29067;35.492;-97.520;2023-10-31T07:09:01;16;16;
43479;PMS5003;29067;35.492;-97.520;2023-10-31T07:11:29;16;15;
43479;PMS5003;29067;35.492;-97.520;2023-10-31T07:13:58;16;15;
43479;PMS5003;29067;35.492;-97.520;2023-10-31T07:16:26;19;17;
43479;PMS5003;29067;35.492;-97.520;2023-10-31T07:18:54;20;19;
43479;PMS5003;29067;35.492;-97.520;2023-10-31T07:21:23;23;21;
43479;PMS5003;29067;35.492;-97.520;2023-10-31T07:23:51;17;17;
43479;PMS5003;29067;35.492;-97.520;2023-10-31T07:26:19;20;16;
43479;PMS5003;29067;35.492;-97.520;2023-10-31T07:28:47;14;14;
43479;PMS5003;29067;35.492;-97.520;2023-10-31T07:31:15;21;19;
43479;PMS5003;29067;35.492;-97.520;2023-10-31T07:33:44;21;19;
43479;PMS5003;29067;35.492;-97.520;2023-10-31T07:36:11;25;20;
43479;PMS5003;29067;35.492;-97.520;2023-10-31T07:38:40;24;18;
43479;PMS5003;29067;35.492;-97.520;2023-10-31T07:41:08;20;17;
43479;PMS5003;29067;35.492;-97.520;2023-10-31T07:43:36;24;16;
43479;PMS5003;29067;35.492;-97.520;2023-10-31T07:46:04;20;17;
43479;PMS5003;29067;35.492;-97.520;2023-10-31T07:48:32;17;14;
43479;PMS5003;29067;35.492;-97.520;2023-10-31T07:51:00;20;16;
43479;PMS5003;29067;35.492;-97.520;2023-10-31T07:53:28;20;17;
43479;PMS5003;29067;35.492;-97.520;2023-10-31T07:55:56;18;18;
43479;PMS5003;29067;35.492;-97.520;2023-10-31T07:58:24;18;17;
43479;PMS5003;29067;35.492;-97.520;2023-10-31T08:00:52;16;16;
43479;PMS5003;29067;35.492;-97.520;2023-10-31T08:03:20;17;17;
43479;PMS5003;29067;35.492;-97.520;2023-10-31T08:05:48;13;12;
43479;PMS5003;29067;35.492;-97.520;2023-10-31T08:08:16;13;12;
43479;PMS5003;29067;35.492;-97.520;2023-10-31T08:10:44;14;14;
43479;PMS5003;29067;35.492;-97.520;2023-10-31T08:13:12;13;10;
43479;PMS5003;29067;35.492;-97.520;2023-10-31T08:15:40;13;13;
43479;PMS5003;29067;35.492;-97.520;2023-10-31T08:18:08;12;12;
43479;PMS5003;29067;35.492;-97.520;2023-10-31T08:20:36;13;12;
43479;PMS5003;29067;35.492;-97.520;2023-10-31T08:23:04;13;12;
43479;PMS5003;29067;35.492;-97.520;2023-10-31T08:25:32;12;12;
43479;PMS5003;29067;35.492;-97.520;2023-10-31T08:28:00;10;10;
43479;PMS5003;29067;35.492;-97.520;2023-10-31T08:30:28;12;12;
43479;PMS5003;29067;35.492;-97.520;2023-10-31T08:32:56;15;13;
43479;PMS5003;29067;35.492;-97.520;2023-10-31T08:35:25;14;10;
43479;PMS5003;29067;35.492;-97.520;2023-10-31T08:37:53;16;13;
43479;PMS5003;29067;35.492;-97.520;2023-10-31T08:40:21;8;8;
43479;PMS5003;29067;35.492;-97.520;2023-10-31T08:42:49;14;12;
43479;PMS5003;29067;35.492;-97.520;2023-10-31T08:45:17;13;12;
43479;PMS5003;29067;35.492;-97.520;2023-10-31T08:47:45;13;12;
43479;PMS5003;29067;35.492;-97.520;2023-10-31T08:50:13;13;13;
43479;PMS5003;29067;35.492;-97.520;2023-10-31T08:52:41;17;13;
43479;PMS5003;29067;35.492;-97.520;2023-10-31T08:55:09;10;9;
43479;PMS5003;29067;35.492;-97.520;2023-10-31T08:57:38;10;10;
43479;PMS5003;29067;35.492;-97.520;2023-10-31T09:00:06;15;12;
43479;PMS5003;29067;35.492;-97.520;2023-10-31T09:02:35;10;9;
43479;PMS5003;29067;35.492;-97.520;2023-10-31T09:05:03;10;8;
43479;PMS5003;29067;35.492;-97.520;2023-10-31T09:07:32;9;9;
43479;PMS5003;29067;35.492;-97.520;2023-10-31T09:10:00;10;10;
43479;PMS5003;29067;35.492;-97.520;2023-10-31T09:12:28;9;9;
43479;PMS5003;29067;35.492;-97.520;2023-10-31T09:14:56;12;10;
43479;PMS5003;29067;35.492;-97.520;2023-10-31T09:17:24;10;10;
43479;PMS5003;29067;35.492;-97.520;2023-10-31T09:19:52;8;8;
43479;PMS5003;29067;35.492;-97.520;2023-10-31T09:22:20;10;9;
43479;PMS5003;29067;35.492;-97.520;2023-10-31T09:24:48;10;10;
43479;PMS5003;29067;35.492;-97.520;2023-10-31T09:27:16;9;9;
43479;PMS5003;29067;35.492;-97.520;2023-10-31T09:29:44;10;9;
43479;PMS5003;29067;35.492;-97.520;2023-10-31T09:32:13;10;10;
43479;PMS5003;29067;35.492;-97.520;2023-10-31T09:34:42;9;8;
43479;PMS5003;29067;35.492;-97.520;2023-10-31T09:37:10;13;12;
43479;PMS5003;29067;35.492;-97.520;2023-10-31T09:39:38;10;10;
43479;PMS5003;29067;35.492;-97.520;2023-10-31T09:42:07;8;6;
43479;PMS5003;29067;35.492;-97.520;2023-10-31T09:44:35;16;14;
43479;PMS5003;29067;35.492;-97.520;2023-10-31T09:47:03;9;9;
43479;PMS5003;29067;35.492;-97.520;2023-10-31T09:49:33;10;9;
43479;PMS5003;29067;35.492;-97.520;2023-10-31T09:52:02;10;9;
43479;PMS5003;29067;35.492;-97.520;2023-10-31T09:54:31;13;10;
43479;PMS5003;29067;35.492;-97.520;2023-10-31T09:57:00;10;9;
43479;PMS5003;29067;35.492;-97.520;2023-10-31T09:59:28;9;8;
43479;PMS5003;29067;35.492;-97.520;2023-10-31T10:01:56;10;10;
43479;PMS5003;29067;35.492;-97.520;2023-10-31T10:04:24;9;8;
43479;PMS5003;29067;35.492;-97.520;2023-10-31T10:06:58;12;10;
43479;PMS5003;29067;35.492;-97.520;2023-10-31T10:09:27;10;9;
43479;PMS5003;29067;35.492;-97.520;2023-10-31T10:11:55;10;9;
43479;PMS5003;29067;35.492;-97.520;2023-10-31T10:14:23;13;10;
43479;PMS5003;29067;35.492;-97.520;2023-10-31T10:16:51;9;8;
43479;PMS5003;29067;35.492;-97.520;2023-10-31T10:19:20;6;6;
43479;PMS5003;29067;35.492;-97.520;2023-10-31T10:21:49;6;6;
43479;PMS5003;29067;35.492;-97.520;2023-10-31T10:24:18;10;9;
43479;PMS5003;29067;35.492;-97.520;2023-10-31T10:26:47;11;11;
43479;PMS5003;29067;35.492;-97.520;2023-10-31T10:29:15;9;9;
43479;PMS5003;29067;35.492;-97.520;2023-10-31T10:31:43;9;9;
43479;PMS5003;29067;35.492;-97.520;2023-10-31T10:34:12;8;6;
43479;PMS5003;29067;35.492;-97.520;2023-10-31T10:36:42;8;6;
43479;PMS5003;29067;35.492;-97.520;2023-10-31T10:39:13;6;6;
43479;PMS5003;29067;35.492;-97.520;2023-10-31T10:41:46;8;8;
43479;PMS5003;29067;35.492;-97.520;2023-10-31T10:44:18;12;10;
43479;PMS5003;29067;35.492;-97.520;2023-10-31T10:46:49;9;9;
43479;PMS5003;29067;35.492;-97.520;2023-10-31T10:49:22;8;6;
43479;PMS5003;29067;35.492;-97.520;2023-10-31T10:51:56;9;8;
43479;PMS5003;29067;35.492;-97.520;2023-10-31T10:54:31;13;12;
43479;PMS5003;29067;35.492;-97.520;2023-10-31T10:57:07;8;8;
43479;PMS5003;29067;35.492;-97.520;2023-10-31T10:59:41;9;8;
43479;PMS5003;29067;35.492;-97.520;2023-10-31T11:02:12;9;8;
43479;PMS5003;29067;35.492;-97.520;2023-10-31T11:04:40;8;8;
43479;PMS5003;29067;35.492;-97.520;2023-10-31T11:07:10;8;8;
43479;PMS5003;29067;35.492;-97.520;2023-10-31T11:09:38;8;6;
43479;PMS5003;29067;35.492;-97.520;2023-10-31T11:12:08;8;8;
43479;PMS5003;29067;35.492;-97.520;2023-10-31T11:14:36;9;9;
43479;PMS5003;29067;35.492;-97.520;2023-10-31T11:17:09;10;8;
43479;PMS5003;29067;35.492;-97.520;2023-10-31T11:19:44;8;6;
43479;PMS5003;29067;35.492;-97.520;2023-10-31T11:22:12;6;6;
43479;PMS5003;29067;35.492;-97.520;2023-10-31T11:24:40;8;6;
43479;PMS5003;29067;35.492;-97.520;2023-10-31T11:27:09;6;6;
43479;PMS5003;29067;35.492;-97.520;2023-10-31T11:29:37;6;6;
43479;PMS5003;29067;35.492;-97.520;2023-10-31T11:32:08;4;4;
43479;PMS5003;29067;35.492;-97.520;2023-10-31T11:34:36;6;5;
43479;PMS5003;29067;35.492;-97.520;2023-10-31T11:37:38;13;9;
43479;PMS5003;29067;35.492;-97.520;2023-10-31T11:40:22;9;6;
43479;PMS5003;29067;35.492;-97.520;2023-10-31T11:42:51;5;5;
43479;PMS5003;29067;35.492;-97.520;2023-10-31T11:45:28;6;6;
43479;PMS5003;29067;35.492;-97.520;2023-10-31T11:48:01;9;8;
43479;PMS5003;29067;35.492;-97.520;2023-10-31T11:50:29;8;6;
43479;PMS5003;29067;35.492;-97.520;2023-10-31T11:52:59;8;6;
43479;PMS5003;29067;35.492;-97.520;2023-10-31T11:55:28;8;8;
43479;PMS5003;29067;35.492;-97.520;2023-10-31T11:57:56;13;12;
43479;PMS5003;29067;35.492;-97.520;2023-10-31T12:03:00;13;12;
43479;PMS5003;29067;35.492;-97.520;2023-10-31T12:05:28;9;9;
43479;PMS5003;29067;35.492;-97.520;2023-10-31T12:07:56;9;9;
43479;PMS5003;29067;35.492;-97.520;2023-10-31T12:10:25;9;8;
43479;PMS5003;29067;35.492;-97.520;2023-10-31T12:12:55;8;6;
43479;PMS5003;29067;35.492;-97.520;2023-10-31T12:15:23;8;8;
43479;PMS5003;29067;35.492;-97.520;2023-10-31T12:17:51;9;6;
43479;PMS5003;29067;35.492;-97.520;2023-10-31T12:20:24;8;8;
43479;PMS5003;29067;35.492;-97.520;2023-10-31T12:23:07;8;8;
43479;PMS5003;29067;35.492;-97.520;2023-10-31T12:25:45;6;6;
43479;PMS5003;29067;35.492;-97.520;2023-10-31T12:28:16;8;8;
43479;PMS5003;29067;35.492;-97.520;2023-10-31T12:30:45;6;6;
43479;PMS5003;29067;35.492;-97.520;2023-10-31T12:33:14;9;8;
43479;PMS5003;29067;35.492;-97.520;2023-10-31T12:35:42;6;6;
43479;PMS5003;29067;35.492;-97.520;2023-10-31T12:38:10;6;6;
43479;PMS5003;29067;35.492;-97.520;2023-10-31T12:40:39;9;8;
43479;PMS5003;29067;35.492;-97.520;2023-10-31T12:43:09;8;8;
43479;PMS5003;29067;35.492;-97.520;2023-10-31T12:45:37;8;6;
43479;PMS5003;29067;35.492;-97.520;2023-10-31T12:48:06;5;5;
43479;PMS5003;29067;35.492;-97.520;2023-10-31T12:50:36;5;5;
43479;PMS5003;29067;35.492;-97.520;2023-10-31T12:53:05;7;6;
43479;PMS5003;29067;35.492;-97.520;2023-10-31T12:55:37;5;5;
43479;PMS5003;29067;35.492;-97.520;2023-10-31T12:58:06;7;6;
43479;PMS5003;29067;35.492;-97.520;2023-10-31T13:00:35;13;13;
43479;PMS5003;29067;35.492;-97.520;2023-10-31T13:03:04;45;43;
43479;PMS5003;29067;35.492;-97.520;2023-10-31T13:05:33;39;39;
43479;PMS5003;29067;35.492;-97.520;2023-10-31T13:08:01;46;44;
43479;PMS5003;29067;35.492;-97.520;2023-10-31T13:10:30;45;43;
43479;PMS5003;29067;35.492;-97.520;2023-10-31T13:12:58;51;51;
43479;PMS5003;29067;35.492;-97.520;2023-10-31T13:15:26;25;25;
43479;PMS5003;29067;35.492;-97.520;2023-10-31T13:17:54;7;6;
43479;PMS5003;29067;35.492;-97.520;2023-10-31T13:20:23;7;6;
43479;PMS5003;29067;35.492;-97.520;2023-10-31T13:22:51;4;4;
43479;PMS5003;29067;35.492;-97.520;2023-10-31T13:25:19;5;5;
43479;PMS5003;29067;35.492;-97.520;2023-10-31T13:27:47;4;4;
43479;PMS5003;29067;35.492;-97.520;2023-10-31T13:30:15;5;5;
43479;PMS5003;29067;35.492;-97.520;2023-10-31T13:32:44;4;4;
43479;PMS5003;29067;35.492;-97.520;2023-10-31T13:35:12;4;4;
43479;PMS5003;29067;35.492;-97.520;2023-10-31T13:37:40;5;5;
43479;PMS5003;29067;35.492;-97.520;2023-10-31T13:40:08;4;4;
43479;PMS5003;29067;35.492;-97.520;2023-10-31T13:42:36;6;5;
43479;PMS5003;29067;35.492;-97.520;2023-10-31T13:45:04;6;5;
43479;PMS5003;29067;35.492;-97.520;2023-10-31T13:47:33;4;4;
43479;PMS5003;29067;35.492;-97.520;2023-10-31T13:50:01;2;2;
43479;PMS5003;29067;35.492;-97.520;2023-10-31T13:52:29;5;5;
43479;PMS5003;29067;35.492;-97.520;2023-10-31T13:54:57;5;5;
43479;PMS5003;29067;35.492;-97.520;2023-10-31T13:57:26;5;4;
43479;PMS5003;29067;35.492;-97.520;2023-10-31T13:59:54;5;5;
43479;PMS5003;29067;35.492;-97.520;2023-10-31T14:02:22;5;4;
43479;PMS5003;29067;35.492;-97.520;2023-10-31T14:04:50;5;5;
43479;PMS5003;29067;35.492;-97.520;2023-10-31T14:07:19;6;5;
43479;PMS5003;29067;35.492;-97.520;2023-10-31T14:09:49;6;6;
43479;PMS5003;29067;35.492;-97.520;2023-10-31T14:12:17;9;9;
43479;PMS5003;29067;35.492;-97.520;2023-10-31T14:14:45;3;3;
43479;PMS5003;29067;35.492;-97.520;2023-10-31T14:17:13;6;3;
43479;PMS5003;29067;35.492;-97.520;2023-10-31T14:19:41;3;3;
43479;PMS5003;29067;35.492;-97.520;2023-10-31T14:22:11;6;6;
43479;PMS5003;29067;35.492;-97.520;2023-10-31T14:24:39;3;3;
43479;PMS5003;29067;35.492;-97.520;2023-10-31T14:27:07;5;5;
43479;PMS5003;29067;35.492;-97.520;2023-10-31T14:29:35;5;5;
43479;PMS5003;29067;35.492;-97.520;2023-10-31T14:32:07;5;3;
43479;PMS5003;29067;35.492;-97.520;2023-10-31T14:34:35;3;3;
43479;PMS5003;29067;35.492;-97.520;2023-10-31T14:37:03;5;5;
43479;PMS5003;29067;35.492;-97.520;2023-10-31T14:39:31;5;5;
43479;PMS5003;29067;35.492;-97.520;2023-10-31T14:41:59;6;6;
43479;PMS5003;29067;35.492;-97.520;2023-10-31T14:44:27;5;3;
43479;PMS5003;29067;35.492;-97.520;2023-10-31T14:46:55;3;3;
43479;PMS5003;29067;35.492;-97.520;2023-10-31T14:49:23;3;3;
43479;PMS5003;29067;35.492;-97.520;2023-10-31T14:51:52;3;3;
43479;PMS5003;29067;35.492;-97.520;2023-10-31T14:54:20;9;5;
43479;PMS5003;29067;35.492;-97.520;2023-10-31T14:56:48;5;3;
43479;PMS5003;29067;35.492;-97.520;2023-10-31T14:59:16;6;5;
43479;PMS5003;29067;35.492;-97.520;2023-10-31T15:01:44;3;3;
43479;PMS5003;29067;35.492;-97.520;2023-10-31T15:04:12;3;3;
43479;PMS5003;29067;35.492;-97.520;2023-10-31T15:06:40;3;3;
43479;PMS5003;29067;35.492;-97.520;2023-10-31T15:09:08;7;6;
43479;PMS5003;29067;35.492;-97.520;2023-10-31T15:11:36;3;2;
43479;PMS5003;29067;35.492;-97.520;2023-10-31T15:14:04;5;5;
43479;PMS5003;29067;35.492;-97.520;2023-10-31T15:16:32;2;2;
43479;PMS5003;29067;35.492;-97.520;2023-10-31T15:19:00;3;3;
43479;PMS5003;29067;35.492;-97.520;2023-10-31T15:21:28;2;2;
43479;PMS5003;29067;35.492;-97.520;2023-10-31T15:23:56;2;2;
43479;PMS5003;29067;35.492;-97.520;2023-10-31T15:26:24;2;2;
43479;PMS5003;29067;35.492;-97.520;2023-10-31T15:28:52;5;3;
43479;PMS5003;29067;35.492;-97.520;2023-10-31T15:31:20;3;3;
43479;PMS5003;29067;35.492;-97.520;2023-10-31T15:33:48;6;5;
43479;PMS5003;29067;35.492;-97.520;2023-10-31T15:36:16;3;3;
43479;PMS5003;29067;35.492;-97.520;2023-10-31T15:38:44;3;3;
43479;PMS5003;29067;35.492;-97.520;2023-10-31T15:41:12;3;3;
43479;PMS5003;29067;35.492;-97.520;2023-10-31T15:43:40;5;5;
43479;PMS5003;29067;35.492;-97.520;2023-10-31T15:46:08;2;2;
43479;PMS5003;29067;35.492;-97.520;2023-10-31T15:48:36;3;3;
43479;PMS5003;29067;35.492;-97.520;2023-10-31T15:51:05;5;5;
43479;PMS5003;29067;35.492;-97.520;2023-10-31T15:53:33;5;5;
43479;PMS5003;29067;35.492;-97.520;2023-10-31T15:56:01;3;3;
43479;PMS5003;29067;35.492;-97.520;2023-10-31T15:58:29;3;3;
43479;PMS5003;29067;35.492;-97.520;2023-10-31T16:00:57;3;3;
43479;PMS5003;29067;35.492;-97.520;2023-10-31T16:03:25;3;2;
43479;PMS5003;29067;35.492;-97.520;2023-10-31T16:05:53;3;2;
43479;PMS5003;29067;35.492;-97.520;2023-10-31T16:08:21;2;2;
43479;PMS5003;29067;35.492;-97.520;2023-10-31T16:10:49;3;2;
43479;PMS5003;29067;35.492;-97.520;2023-10-31T16:13:17;5;5;